Aumsville, OR

10:49 PM PDT on September 03, 2015 (GMT -0700)
'Aumsville Ponds' Park | | Change Station
CLOSE
Current Station
Personal Weather Station
Location: Aumsville, OR
Elevation: 377 ft
Nearby Weather Stations

Elev 377 ft 44.83 °N, 122.86 °W | Updated 13 seconds ago

Overcast
Overcast
55.3 °F
Feels Like 55.3 °F
N
0.0
Wind Variable Wind from NNW
Gusts 0.0 mph

Today
High -- | Low -- °F
--% Chance of Precip.
Yesterday
High -- | Low -- °F
Precip. -- in
6:35 AM 7:44 PM
Waning Gibbous, 63% visible
Pressure 29.99 in
Visibility 10.0 miles
Clouds Overcast 4000 ft
Dew Point 50 °F
Humidity 83%
Rainfall 0.03 in
Snow Depth Not available.
UV 0 out of 12
Pollen 2.50 out of 12
Air Quality Not available.
Flu Activity Not available.
METAR KSLE 040456Z AUTO 33006KT 10SM OVC040 16/09 A2999 RMK AO2 SLP155 T01560094
Pressure 29.99 in
Visibility 10.0 miles
Clouds Overcast 4000 ft
Dew Point 50 °F
Humidity 83%
Rainfall 0.03 in
Snow Depth Not available.
UV 0 out of 12
Pollen 2.50 out of 12
Air Quality Not available.
Flu Activity Not available.
METAR KSLE 040456Z AUTO 33006KT 10SM OVC040 16/09 A2999 RMK AO2 SLP155 T01560094

10-Day Weather Forecast

×

Almanac

Astronomy

Sep. 03, 2015 Rise Set
Actual Time
Civil Twilight
Nautical Twilight
Astronomical Twilight
Moon
Length of Visible Light
Length of Day
Tomorrow will be .
, % of the Moon is Illuminated

Today's Extremes

State Highs State Lows

Community

WunderPhotos

Upload Photos

1,852,129 photos uploaded!

WunderBlogs® & News

Nearby

Air Quality

  Air Quality AQ Index Pollutant
Not available.

Snow Depth

Station Depth Elevation

Earthquake Activity

City Distance Mag. Time & Date
Minimum magnitude displayed is 2.5.

Coastal Water Temperatures

Place Temperature

Stations

Nearby Weather Stations

Station Location Temp. Windchill Dew Point Humidity Wind Precip. Elev Updated Type